createdAt,value
2022-08-17T00:00:06.259Z,24.64
2022-08-17T00:02:42.819Z,24.63
2022-08-17T00:05:10.884Z,24.64
2022-08-17T00:07:38.626Z,24.63
2022-08-17T00:10:07.038Z,24.54
2022-08-17T00:12:51.421Z,24.63
2022-08-17T00:15:20.838Z,24.60
2022-08-17T00:17:51.578Z,24.58
2022-08-17T00:20:20.434Z,24.60
2022-08-17T00:23:04.850Z,24.60
2022-08-17T00:25:32.651Z,24.56
2022-08-17T00:28:00.401Z,24.56
2022-08-17T00:30:28.109Z,24.53
2022-08-17T00:33:11.582Z,24.55
2022-08-17T00:35:45.686Z,24.52
2022-08-17T00:38:13.686Z,24.52
2022-08-17T00:40:44.817Z,24.53
2022-08-17T00:43:18.083Z,24.53
2022-08-17T00:45:46.449Z,24.49
2022-08-17T00:48:28.932Z,24.50
2022-08-17T00:51:01.888Z,24.48
2022-08-17T00:53:31.614Z,24.39
2022-08-17T00:56:01.840Z,24.45
2022-08-17T00:58:30.458Z,24.39
2022-08-17T01:01:04.564Z,24.37
2022-08-17T01:03:34.539Z,24.34
2022-08-17T01:06:03.290Z,24.27
2022-08-17T01:08:32.363Z,24.25
2022-08-17T01:11:02.442Z,24.25
2022-08-17T01:13:38.234Z,24.24
2022-08-17T01:16:13.246Z,24.23
2022-08-17T01:18:42.825Z,24.19
2022-08-17T01:21:12.865Z,24.13
2022-08-17T01:23:43.224Z,24.14
2022-08-17T01:26:10.877Z,24.10
2022-08-17T01:28:54.263Z,24.07
2022-08-17T01:31:24.240Z,24.04
2022-08-17T01:33:51.906Z,24.02
2022-08-17T01:36:19.659Z,24.02
2022-08-17T01:38:48.755Z,24.01
2022-08-17T01:41:17.343Z,23.99
2022-08-17T01:43:47.143Z,23.98
2022-08-17T01:46:17.073Z,23.95
2022-08-17T01:48:47.339Z,23.93
2022-08-17T01:51:15.823Z,23.84
2022-08-17T01:53:46.623Z,23.74
2022-08-17T01:56:18.614Z,23.72
2022-08-17T01:58:46.913Z,23.71
2022-08-17T02:01:15.724Z,23.69
2022-08-17T02:03:56.215Z,23.69
2022-08-17T02:06:29.100Z,23.66
2022-08-17T02:09:02.435Z,23.65
2022-08-17T02:11:34.250Z,23.65
2022-08-17T02:14:04.090Z,23.65
2022-08-17T02:16:37.459Z,23.65
2022-08-17T02:19:07.092Z,23.60
2022-08-17T02:21:34.900Z,23.69
2022-08-17T02:24:02.787Z,23.69
2022-08-17T02:26:32.005Z,23.69
2022-08-17T02:28:59.654Z,23.69
2022-08-17T02:31:27.323Z,23.67
2022-08-17T02:33:56.921Z,23.66
2022-08-17T02:36:32.079Z,23.65
2022-08-17T02:39:01.550Z,23.66
2022-08-17T02:41:29.403Z,23.63
2022-08-17T02:43:58.620Z,23.65
2022-08-17T02:46:26.714Z,23.61
2022-08-17T02:48:54.583Z,23.62
2022-08-17T02:51:22.299Z,23.57
2022-08-17T02:53:50.019Z,23.57
2022-08-17T02:56:17.859Z,23.54
2022-08-17T02:58:46.301Z,23.52
2022-08-17T03:01:15.480Z,23.50
2022-08-17T03:03:43.467Z,23.47
2022-08-17T03:06:11.282Z,23.45
2022-08-17T03:08:39.007Z,23.42
2022-08-17T03:11:06.682Z,23.39
2022-08-17T03:13:34.676Z,23.35
2022-08-17T03:16:02.462Z,23.35
2022-08-17T03:18:31.839Z,23.35
2022-08-17T03:21:01.301Z,23.32
2022-08-17T03:23:30.425Z,23.31
2022-08-17T03:25:58.189Z,23.29
2022-08-17T03:28:28.188Z,23.29
2022-08-17T03:30:56.035Z,23.28
2022-08-17T03:33:24.019Z,23.26
2022-08-17T03:35:53.224Z,23.25
2022-08-17T03:38:21.870Z,23.25
2022-08-17T03:40:57.287Z,23.24
2022-08-17T03:43:27.934Z,23.22
2022-08-17T03:46:28.201Z,23.21
2022-08-17T03:49:19.566Z,23.16
2022-08-17T03:52:05.971Z,23.15
2022-08-17T03:54:51.116Z,23.11
2022-08-17T03:57:19.291Z,23.07
2022-08-17T03:59:47.710Z,23.11
2022-08-17T04:02:19.292Z,23.14
2022-08-17T04:04:46.934Z,23.10
2022-08-17T04:07:16.001Z,23.11
2022-08-17T04:09:44.215Z,23.10
2022-08-17T04:12:12.649Z,23.09
2022-08-17T04:14:52.054Z,23.08
2022-08-17T04:17:21.931Z,23.08
2022-08-17T04:19:49.637Z,23.10
2022-08-17T04:22:32.918Z,23.12
2022-08-17T04:25:08.879Z,23.10
2022-08-17T04:27:36.692Z,23.10
2022-08-17T04:30:05.865Z,23.11
2022-08-17T04:33:10.824Z,23.12
2022-08-17T04:35:23.337Z,23.12
2022-08-17T04:37:52.726Z,23.12
2022-08-17T04:40:39.558Z,23.11
2022-08-17T04:43:09.271Z,23.10
2022-08-17T04:45:40.546Z,23.11
2022-08-17T04:48:35.500Z,23.11
2022-08-17T04:51:04.904Z,23.12
2022-08-17T04:53:34.059Z,23.13
2022-08-17T04:56:01.804Z,23.13
2022-08-17T04:58:29.510Z,23.13
2022-08-17T05:00:57.255Z,23.13
2022-08-17T05:03:24.997Z,23.12
2022-08-17T05:05:53.687Z,23.12
2022-08-17T05:08:22.138Z,23.12
2022-08-17T05:10:52.036Z,23.14
2022-08-17T05:13:22.135Z,23.14
2022-08-17T05:15:51.214Z,23.12
2022-08-17T05:18:19.100Z,23.14
2022-08-17T05:20:46.844Z,23.15
2022-08-17T05:23:16.545Z,23.15
2022-08-17T05:25:47.497Z,23.15
2022-08-17T05:28:17.468Z,23.16
2022-08-17T05:30:49.286Z,23.16
2022-08-17T05:33:19.300Z,23.18
2022-08-17T05:35:48.884Z,23.18
2022-08-17T05:38:17.300Z,23.18
2022-08-17T05:40:45.352Z,23.17
2022-08-17T05:43:17.067Z,23.19
2022-08-17T05:45:54.330Z,23.20
2022-08-17T05:48:22.797Z,23.18
2022-08-17T05:51:18.501Z,23.20
2022-08-17T05:53:51.400Z,23.14
2022-08-17T05:56:29.856Z,23.20
2022-08-17T05:59:04.835Z,23.20
2022-08-17T06:01:36.808Z,23.20
2022-08-17T06:04:13.386Z,23.22
2022-08-17T06:06:44.830Z,23.23
2022-08-17T06:09:28.837Z,23.24
2022-08-17T06:12:04.747Z,23.23
2022-08-17T06:14:48.966Z,23.27
2022-08-17T06:17:20.207Z,23.28
2022-08-17T06:19:52.464Z,23.26
2022-08-17T06:22:21.371Z,23.34
2022-08-17T06:24:52.824Z,23.36
2022-08-17T06:27:24.612Z,23.37
2022-08-17T06:29:56.958Z,23.38
2022-08-17T06:32:25.643Z,23.34
2022-08-17T06:34:53.673Z,23.40
2022-08-17T06:37:32.422Z,23.43
2022-08-17T06:40:07.442Z,23.44
2022-08-17T06:43:05.243Z,23.45
2022-08-17T06:45:40.267Z,23.50
2022-08-17T06:48:12.890Z,23.54
2022-08-17T06:50:45.551Z,23.58
2022-08-17T06:53:18.731Z,23.61
2022-08-17T06:55:49.349Z,23.64
2022-08-17T06:58:22.314Z,23.65
2022-08-17T07:00:58.504Z,23.69
2022-08-17T07:03:30.981Z,23.71
2022-08-17T07:06:00.484Z,23.72
2022-08-17T07:08:35.092Z,23.78
2022-08-17T07:11:06.860Z,23.81
2022-08-17T07:13:49.218Z,23.85
2022-08-17T07:16:23.604Z,23.87
2022-08-17T07:18:52.909Z,23.89
2022-08-17T07:21:30.177Z,23.93
2022-08-17T07:24:08.285Z,23.96
2022-08-17T07:26:35.957Z,23.96
2022-08-17T07:29:03.793Z,23.98
2022-08-17T07:31:33.625Z,24.02
2022-08-17T07:34:06.766Z,23.98
2022-08-17T07:36:35.103Z,23.94
2022-08-17T07:39:03.930Z,23.90
2022-08-17T07:41:57.851Z,23.88
2022-08-17T07:44:24.609Z,23.86
2022-08-17T07:47:12.338Z,23.89
2022-08-17T07:49:42.293Z,23.85
2022-08-17T07:52:47.302Z,23.80
2022-08-17T07:54:59.196Z,23.76
2022-08-17T07:57:35.521Z,23.77
2022-08-17T08:00:32.410Z,23.74
2022-08-17T08:03:14.709Z,23.69
2022-08-17T08:05:51.739Z,23.76
2022-08-17T08:08:26.258Z,23.81
2022-08-17T08:11:01.068Z,24.29
2022-08-17T08:13:30.733Z,24.04
2022-08-17T08:16:15.114Z,23.98
2022-08-17T08:18:55.732Z,23.96
2022-08-17T08:21:37.854Z,23.99
2022-08-17T08:24:21.215Z,24.01
2022-08-17T08:26:55.454Z,24.02
2022-08-17T08:29:28.373Z,24.03
2022-08-17T08:32:02.653Z,24.04
2022-08-17T08:34:58.706Z,24.03
2022-08-17T08:37:35.789Z,24.06
2022-08-17T08:40:12.405Z,24.09
2022-08-17T08:42:49.865Z,24.09
2022-08-17T08:45:22.976Z,24.06
2022-08-17T08:48:57.033Z,24.09
2022-08-17T08:51:01.269Z,24.09
2022-08-17T08:53:36.266Z,24.13
2022-08-17T08:56:05.851Z,24.15
2022-08-17T08:58:41.638Z,24.18
2022-08-17T09:01:16.811Z,24.19
2022-08-17T09:03:54.852Z,24.23
2022-08-17T09:06:39.718Z,24.26
2022-08-17T09:09:17.349Z,24.27
2022-08-17T09:12:01.337Z,24.12
2022-08-17T09:14:45.038Z,24.05
2022-08-17T09:17:16.588Z,24.04
2022-08-17T09:19:49.354Z,24.02
2022-08-17T09:22:23.078Z,24.02
2022-08-17T09:24:54.700Z,24.02
2022-08-17T09:27:26.090Z,24.18
2022-08-17T09:29:57.845Z,24.26
2022-08-17T09:32:30.092Z,24.31
2022-08-17T09:35:02.637Z,24.35
2022-08-17T09:37:36.931Z,24.86
2022-08-17T09:40:11.237Z,25.02
2022-08-17T09:42:46.560Z,24.76
2022-08-17T09:45:29.639Z,24.66
2022-08-17T09:48:00.344Z,24.64
2022-08-17T09:51:03.793Z,24.64
2022-08-17T09:53:21.846Z,24.63
2022-08-17T09:55:59.542Z,24.60
2022-08-17T09:58:34.707Z,24.70
2022-08-17T10:01:05.080Z,24.59
2022-08-17T10:03:50.783Z,24.68
2022-08-17T10:06:23.242Z,24.71
2022-08-17T10:08:57.481Z,24.75
2022-08-17T10:11:50.658Z,24.76
2022-08-17T10:14:36.316Z,24.77
2022-08-17T10:17:12.395Z,24.78
2022-08-17T10:19:44.972Z,24.73
2022-08-17T10:22:38.501Z,24.80
2022-08-17T10:25:33.442Z,24.77
2022-08-17T10:28:20.001Z,24.76
2022-08-17T10:31:01.421Z,24.78
2022-08-17T10:33:50.914Z,24.78
2022-08-17T10:36:23.446Z,24.73
2022-08-17T10:39:00.650Z,24.77
2022-08-17T10:41:30.364Z,24.65
2022-08-17T10:44:37.934Z,24.59
2022-08-17T10:46:52.163Z,24.56
2022-08-17T10:49:27.276Z,24.53
2022-08-17T10:51:55.734Z,24.51
2022-08-17T10:57:34.475Z,24.71
2022-08-17T11:00:03.024Z,24.74
2022-08-17T11:02:31.859Z,24.79
2022-08-17T11:05:11.692Z,24.83
2022-08-17T11:07:52.061Z,24.85
2022-08-17T11:10:42.597Z,24.82
2022-08-17T11:13:18.651Z,24.89
2022-08-17T11:15:59.121Z,24.84
2022-08-17T11:18:44.885Z,25.00
2022-08-17T11:21:25.782Z,25.43
2022-08-17T11:24:14.045Z,25.18
2022-08-17T11:26:46.706Z,25.09
2022-08-17T11:29:24.770Z,25.07
2022-08-17T11:32:02.995Z,25.06
2022-08-17T11:34:32.041Z,25.09
2022-08-17T11:37:35.523Z,25.10
2022-08-17T11:40:43.109Z,25.09
2022-08-17T11:43:53.226Z,25.11
2022-08-17T11:46:51.053Z,25.12
2022-08-17T11:49:49.045Z,25.12
2022-08-17T11:52:38.634Z,25.14
2022-08-17T11:55:34.039Z,25.13
2022-08-17T11:58:01.821Z,25.11
2022-08-17T12:00:51.404Z,25.17
2022-08-17T12:03:42.376Z,25.15
2022-08-17T12:06:37.355Z,25.19
2022-08-17T12:09:11.565Z,25.19
2022-08-17T12:11:55.383Z,25.19
2022-08-17T12:15:05.686Z,25.19
2022-08-17T12:17:41.106Z,25.19
2022-08-17T12:20:16.187Z,25.20
2022-08-17T12:22:53.379Z,25.19
2022-08-17T12:25:23.908Z,25.18
2022-08-17T12:28:06.738Z,25.17
2022-08-17T12:30:36.334Z,25.16
2022-08-17T12:33:04.069Z,25.16
2022-08-17T12:35:35.770Z,25.61
2022-08-17T12:38:04.435Z,25.40
2022-08-17T12:40:33.452Z,25.32
2022-08-17T12:43:04.253Z,25.26
2022-08-17T12:45:33.950Z,25.24
2022-08-17T12:48:04.099Z,25.21
2022-08-17T12:50:33.498Z,25.17
2022-08-17T12:53:02.525Z,25.15
2022-08-17T12:55:32.722Z,25.12
2022-08-17T12:58:02.283Z,25.09
2022-08-17T13:00:32.724Z,25.09
2022-08-17T13:03:02.558Z,25.03
2022-08-17T13:05:35.554Z,25.02
2022-08-17T13:08:06.056Z,24.96
2022-08-17T13:10:37.679Z,24.94
2022-08-17T13:13:23.517Z,24.89
2022-08-17T13:15:53.300Z,24.70
2022-08-17T13:18:39.917Z,24.68
2022-08-17T13:21:19.770Z,24.61
2022-08-17T13:23:57.058Z,24.56
2022-08-17T13:26:29.543Z,24.47
2022-08-17T13:28:57.309Z,24.38
2022-08-17T13:31:42.860Z,24.34
2022-08-17T13:34:33.497Z,24.26
2022-08-17T13:37:28.929Z,24.21
2022-08-17T13:39:58.462Z,24.14
2022-08-17T13:42:34.642Z,24.10
2022-08-17T13:45:39.667Z,23.97
2022-08-17T13:48:11.098Z,23.93
2022-08-17T13:50:46.342Z,23.90
2022-08-17T13:54:25.666Z,23.80
2022-08-17T13:57:00.233Z,23.80
2022-08-17T13:59:55.171Z,23.75
2022-08-17T14:02:27.519Z,23.68
2022-08-17T14:04:57.499Z,23.69
2022-08-17T14:07:33.595Z,23.70
2022-08-17T14:10:06.312Z,23.69
2022-08-17T14:12:35.339Z,23.66
2022-08-17T14:15:03.389Z,23.64
2022-08-17T14:17:37.934Z,23.62
2022-08-17T14:20:09.496Z,23.58
2022-08-17T14:22:39.686Z,23.53
2022-08-17T14:25:10.709Z,23.55
2022-08-17T14:27:52.467Z,23.52
2022-08-17T14:30:23.866Z,23.53
2022-08-17T14:32:51.997Z,23.52
2022-08-17T14:35:22.384Z,23.51
2022-08-17T14:37:50.585Z,23.51
2022-08-17T14:40:24.696Z,23.50
2022-08-17T14:42:54.312Z,23.49
2022-08-17T14:45:30.250Z,23.47
2022-08-17T14:48:01.642Z,23.45
2022-08-17T14:50:29.242Z,23.49
2022-08-17T14:52:58.067Z,23.52
2022-08-17T14:55:27.559Z,23.59
2022-08-17T14:57:55.349Z,23.59
2022-08-17T15:00:23.262Z,23.65
2022-08-17T15:02:53.829Z,23.70
2022-08-17T15:05:23.257Z,23.72
2022-08-17T15:07:51.278Z,23.75
2022-08-17T15:10:19.285Z,23.84
2022-08-17T15:12:48.466Z,23.88
2022-08-17T15:15:18.524Z,23.90
2022-08-17T15:17:46.321Z,23.89
2022-08-17T15:20:17.026Z,23.90
2022-08-17T15:22:44.934Z,23.76
2022-08-17T15:25:14.531Z,23.88
2022-08-17T15:27:42.309Z,23.93
2022-08-17T15:30:12.806Z,23.97
2022-08-17T15:32:51.328Z,23.98
2022-08-17T15:35:27.548Z,23.96
2022-08-17T15:37:57.812Z,23.94
2022-08-17T15:40:26.021Z,23.93
2022-08-17T15:42:53.894Z,23.94
2022-08-17T15:48:02.895Z,23.96
2022-08-17T15:50:30.691Z,23.93
2022-08-17T15:52:59.724Z,23.93
2022-08-17T15:55:30.906Z,23.90
2022-08-17T15:57:59.125Z,23.90
2022-08-17T16:00:28.454Z,23.89
2022-08-17T16:03:45.352Z,23.90
2022-08-17T16:05:46.233Z,23.88
2022-08-17T16:08:20.200Z,23.88
2022-08-17T16:10:48.814Z,23.87
2022-08-17T16:13:17.277Z,23.89
2022-08-17T16:15:47.779Z,23.89
2022-08-17T16:18:24.419Z,23.92
2022-08-17T16:20:53.650Z,23.98
2022-08-17T16:23:21.349Z,24.05
2022-08-17T16:25:52.731Z,24.10
2022-08-17T16:28:35.629Z,24.16
2022-08-17T16:31:05.869Z,24.18
2022-08-17T16:33:36.390Z,24.21
2022-08-17T16:36:06.149Z,24.23
2022-08-17T16:38:33.986Z,24.20
2022-08-17T16:41:01.630Z,24.20
2022-08-17T16:43:30.002Z,24.21
2022-08-17T16:45:57.765Z,24.21
2022-08-17T16:48:25.567Z,24.19
2022-08-17T16:51:03.534Z,24.15
2022-08-17T16:53:33.690Z,24.10
2022-08-17T16:56:01.323Z,24.04
2022-08-17T16:58:29.061Z,24.01
2022-08-17T17:00:59.749Z,23.94
2022-08-17T17:03:28.870Z,23.92
2022-08-17T17:06:03.843Z,23.87
2022-08-17T17:08:44.073Z,23.81
2022-08-17T17:11:15.687Z,23.76
2022-08-17T17:13:47.939Z,23.72
2022-08-17T17:16:21.604Z,23.67
2022-08-17T17:19:04.590Z,23.59
2022-08-17T17:21:38.418Z,23.48
2022-08-17T17:24:11.620Z,23.49
2022-08-17T17:26:59.293Z,23.48
2022-08-17T17:29:48.205Z,23.45
2022-08-17T17:32:21.860Z,23.43
2022-08-17T17:34:53.311Z,23.42
2022-08-17T17:37:23.770Z,23.41
2022-08-17T17:39:54.360Z,23.42
2022-08-17T17:42:24.851Z,23.35
2022-08-17T17:44:59.342Z,23.41
2022-08-17T17:47:27.600Z,23.39
2022-08-17T17:49:55.827Z,23.37
2022-08-17T17:52:28.863Z,23.36
2022-08-17T17:55:08.346Z,23.34
2022-08-17T17:57:47.063Z,23.33
2022-08-17T18:00:17.545Z,23.30
2022-08-17T18:03:04.588Z,23.28
2022-08-17T18:05:39.927Z,23.26
2022-08-17T18:08:19.374Z,23.28
2022-08-17T18:10:54.756Z,23.26
2022-08-17T18:13:27.324Z,23.24
2022-08-17T18:16:00.578Z,23.24
2022-08-17T18:18:37.604Z,23.25
2022-08-17T18:21:15.534Z,23.19
2022-08-17T18:23:54.842Z,23.23
2022-08-17T18:26:45.003Z,23.20
2022-08-17T18:29:21.375Z,23.15
2022-08-17T18:31:52.433Z,23.15
2022-08-17T18:34:45.982Z,23.18
2022-08-17T18:37:12.858Z,23.12
2022-08-17T18:39:44.277Z,23.08
2022-08-17T18:42:26.793Z,23.09
2022-08-17T18:44:55.749Z,23.07
2022-08-17T18:47:25.649Z,23.07
2022-08-17T18:49:57.715Z,23.02
2022-08-17T18:52:27.719Z,23.04
2022-08-17T18:55:05.919Z,23.04
2022-08-17T18:57:37.745Z,23.01
2022-08-17T19:00:12.683Z,23.00
2022-08-17T19:02:51.061Z,22.95
2022-08-17T19:05:32.638Z,23.00
2022-08-17T19:08:18.245Z,22.88
2022-08-17T19:10:47.441Z,22.92
2022-08-17T19:13:24.404Z,22.93
2022-08-17T19:18:45.291Z,22.88
2022-08-17T19:21:16.485Z,22.86
2022-08-17T19:23:53.340Z,22.85
2022-08-17T19:26:54.747Z,22.84
2022-08-17T19:29:16.565Z,22.83
2022-08-17T19:31:47.387Z,22.81
2022-08-17T19:34:17.467Z,22.81
2022-08-17T19:37:06.831Z,22.78
2022-08-17T19:39:37.978Z,22.79
2022-08-17T19:42:12.198Z,22.78
2022-08-17T19:44:50.181Z,22.79
2022-08-17T19:47:36.244Z,22.58
2022-08-17T19:50:11.609Z,22.67
2022-08-17T19:52:46.625Z,22.69
2022-08-17T19:55:22.367Z,22.71
2022-08-17T19:57:59.708Z,22.69
2022-08-17T20:00:31.123Z,22.69
2022-08-17T20:03:05.949Z,22.70
2022-08-17T20:06:01.421Z,22.66
2022-08-17T20:08:28.318Z,22.66
2022-08-17T20:10:58.845Z,22.67
2022-08-17T20:13:33.256Z,22.69
2022-08-17T20:16:04.290Z,22.68
2022-08-17T20:18:37.637Z,22.68
2022-08-17T20:21:20.023Z,22.68
2022-08-17T20:23:53.665Z,22.65
2022-08-17T20:26:26.294Z,22.64
2022-08-17T20:29:37.147Z,22.58
2022-08-17T20:32:27.379Z,22.52
2022-08-17T20:36:13.286Z,22.51
2022-08-17T20:38:43.885Z,22.46
2022-08-17T20:41:15.019Z,22.42
2022-08-17T20:43:52.404Z,22.34
2022-08-17T20:46:53.293Z,22.27
2022-08-17T20:49:28.372Z,22.19
2022-08-17T20:52:02.680Z,22.17
2022-08-17T20:54:49.810Z,22.13
2022-08-17T20:57:47.399Z,22.08
2022-08-17T21:00:42.124Z,22.00
2022-08-17T21:03:50.596Z,22.04
2022-08-17T21:06:24.177Z,21.99
2022-08-17T21:08:58.917Z,22.02
2022-08-17T21:12:04.063Z,22.01
2022-08-17T21:14:38.044Z,21.95
2022-08-17T21:17:45.485Z,21.95
2022-08-17T21:20:26.429Z,21.92
2022-08-17T21:23:16.189Z,21.92
2022-08-17T21:26:05.467Z,21.85
2022-08-17T21:28:59.963Z,21.88
2022-08-17T21:31:30.292Z,21.70
2022-08-17T21:34:25.477Z,21.80
2022-08-17T21:36:53.366Z,21.84
2022-08-17T21:39:33.315Z,21.86
2022-08-17T21:42:02.773Z,21.84
2022-08-17T21:44:33.839Z,21.82
2022-08-17T21:47:16.607Z,21.89
2022-08-17T21:49:44.314Z,21.86
2022-08-17T21:52:12.866Z,21.71
2022-08-17T21:54:44.423Z,21.82
2022-08-17T21:57:20.249Z,21.86
2022-08-17T21:59:53.669Z,21.86
2022-08-17T22:02:23.532Z,21.87
2022-08-17T22:05:00.030Z,21.89
2022-08-17T22:07:40.114Z,21.90
2022-08-17T22:10:10.262Z,21.88
2022-08-17T22:12:40.326Z,21.90
2022-08-17T22:15:09.714Z,21.88
2022-08-17T22:17:41.120Z,21.80
2022-08-17T22:20:14.169Z,21.81
2022-08-17T22:23:23.923Z,21.82
2022-08-17T22:26:00.070Z,21.80
2022-08-17T22:28:39.758Z,21.59
2022-08-17T22:31:09.173Z,21.67
2022-08-17T22:33:41.470Z,21.71
2022-08-17T22:36:11.683Z,21.70
2022-08-17T22:38:40.669Z,21.71
2022-08-17T22:41:27.577Z,21.73
2022-08-17T22:43:57.394Z,21.70
2022-08-17T22:46:25.600Z,21.70
2022-08-17T22:48:56.699Z,21.64
2022-08-17T22:51:26.477Z,21.67
2022-08-17T22:54:13.224Z,21.61
2022-08-17T22:57:06.097Z,21.62
2022-08-17T22:59:46.841Z,21.56
2022-08-17T23:02:20.222Z,21.49
2022-08-17T23:04:51.356Z,21.43
2022-08-17T23:07:20.074Z,21.37
2022-08-17T23:09:47.721Z,21.33
2022-08-17T23:12:18.795Z,21.32
2022-08-17T23:14:51.270Z,21.30
2022-08-17T23:17:19.003Z,21.28
2022-08-17T23:19:46.713Z,21.27
2022-08-17T23:22:14.355Z,21.26
2022-08-17T23:24:45.370Z,21.25
2022-08-17T23:27:13.402Z,21.22
2022-08-17T23:29:42.083Z,21.22
2022-08-17T23:32:14.799Z,21.21
2022-08-17T23:34:44.192Z,21.17
2022-08-17T23:37:12.754Z,21.13
2022-08-17T23:39:40.717Z,21.09
2022-08-17T23:42:10.124Z,21.10
2022-08-17T23:44:38.592Z,21.66
2022-08-17T23:47:07.755Z,21.77
2022-08-17T23:49:37.480Z,21.52
2022-08-17T23:52:06.712Z,21.42
2022-08-17T23:54:37.449Z,21.38
2022-08-17T23:57:06.012Z,21.33
2022-08-17T23:59:33.994Z,21.32
